createdAt,value
2022-11-05T00:01:39.592Z,97071.09
2022-11-05T00:05:01.229Z,97074.13
2022-11-05T00:08:23.947Z,97076.19
2022-11-05T00:11:43.013Z,97071.63
2022-11-05T00:15:04.141Z,97069.84
2022-11-05T00:18:07.837Z,97072.69
2022-11-05T00:21:25.421Z,97060.97
2022-11-05T00:24:46.296Z,97066.09
2022-11-05T00:27:52.661Z,97062.50
2022-11-05T00:31:01.798Z,97054.34
2022-11-05T00:34:05.924Z,97064.03
2022-11-05T00:37:09.684Z,97051.56
2022-11-05T00:40:15.078Z,97053.34
2022-11-05T00:43:37.318Z,97053.19
2022-11-05T00:46:41.168Z,97059.34
2022-11-05T00:49:43.830Z,97047.81
2022-11-05T00:52:58.055Z,97033.53
2022-11-05T00:56:02.093Z,97008.56
2022-11-05T00:59:07.082Z,97015.69
2022-11-05T01:02:10.850Z,97019.22
2022-11-05T01:05:14.799Z,97015.13
2022-11-05T01:08:21.650Z,97001.66
2022-11-05T01:11:37.362Z,96998.84
2022-11-05T01:14:42.713Z,97001.88
2022-11-05T01:17:46.162Z,96994.16
2022-11-05T01:20:50.567Z,96987.31
2022-11-05T01:23:54.433Z,96993.66
2022-11-05T01:26:58.122Z,96991.84
2022-11-05T01:30:03.022Z,96997.75
2022-11-05T01:33:07.324Z,97003.88
2022-11-05T01:36:11.417Z,97006.16
2022-11-05T01:39:15.265Z,97004.72
2022-11-05T01:42:21.870Z,97009.25
2022-11-05T01:45:28.460Z,97008.75
2022-11-05T01:48:36.403Z,97005.97
2022-11-05T01:51:40.673Z,96999.28
2022-11-05T01:54:44.937Z,97012.00
2022-11-05T01:57:48.868Z,97000.69
2022-11-05T02:00:55.836Z,97000.44
2022-11-05T02:04:02.558Z,97007.56
2022-11-05T02:07:08.959Z,97013.63
2022-11-05T02:10:15.621Z,97012.91
2022-11-05T02:13:19.150Z,97005.94
2022-11-05T02:16:37.706Z,96990.88
2022-11-05T02:20:09.520Z,96986.31
2022-11-05T02:23:45.265Z,96989.06
2022-11-05T02:27:16.115Z,96997.19
2022-11-05T02:30:43.590Z,96991.19
2022-11-05T02:33:57.065Z,96997.00
2022-11-05T02:37:14.304Z,96996.97
2022-11-05T02:40:23.951Z,96988.25
2022-11-05T02:43:38.081Z,96985.47
2022-11-05T02:46:50.282Z,96987.03
2022-11-05T02:50:02.463Z,96979.63
2022-11-05T02:53:12.249Z,96975.59
2022-11-05T02:56:21.441Z,96957.84
2022-11-05T02:59:24.835Z,96956.81
2022-11-05T03:02:30.183Z,96973.63
2022-11-05T03:05:45.503Z,96975.91
2022-11-05T03:09:09.217Z,96989.34
2022-11-05T03:12:25.173Z,96994.16
2022-11-05T03:15:43.099Z,97010.28
2022-11-05T03:18:57.826Z,97021.75
2022-11-05T03:22:06.217Z,97040.81
2022-11-05T03:25:13.655Z,97043.31
2022-11-05T03:28:22.381Z,97042.56
2022-11-05T03:31:26.432Z,97034.09
2022-11-05T03:34:36.983Z,97038.41
2022-11-05T03:37:44.227Z,97041.50
2022-11-05T03:40:52.874Z,97043.69
2022-11-05T03:43:59.851Z,97049.22
2022-11-05T03:47:07.230Z,97065.22
2022-11-05T03:50:21.337Z,97079.25
2022-11-05T03:53:29.207Z,97097.59
2022-11-05T03:56:38.895Z,97104.59
2022-11-05T03:59:45.158Z,97116.78
2022-11-05T04:02:48.642Z,97130.56
2022-11-05T04:06:13.833Z,97145.91
2022-11-05T04:09:35.130Z,97138.78
2022-11-05T04:12:56.054Z,97154.56
2022-11-05T04:16:16.625Z,97157.34
2022-11-05T04:19:41.581Z,97165.50
2022-11-05T04:23:03.696Z,97158.66
2022-11-05T04:26:07.508Z,97172.94
2022-11-05T04:29:37.085Z,97168.06
2022-11-05T04:32:40.907Z,97172.41
2022-11-05T04:35:46.270Z,97161.97
2022-11-05T04:38:51.391Z,97161.72
2022-11-05T04:41:54.743Z,97155.84
2022-11-05T04:44:59.556Z,97155.84
2022-11-05T04:48:03.677Z,97158.63
2022-11-05T04:51:07.767Z,97144.38
2022-11-05T04:54:12.601Z,97119.19
2022-11-05T04:57:16.294Z,97128.34
2022-11-05T05:00:21.082Z,97104.91
2022-11-05T05:03:24.745Z,97113.88
2022-11-05T05:06:28.325Z,97102.66
2022-11-05T05:09:33.517Z,97094.25
2022-11-05T05:12:36.891Z,97080.00
2022-11-05T05:15:40.590Z,97069.56
2022-11-05T05:18:46.409Z,97065.75
2022-11-05T05:21:49.315Z,97060.16
2022-11-05T05:24:54.390Z,97046.41
2022-11-05T05:27:58.687Z,97044.63
2022-11-05T05:31:02.328Z,97034.44
2022-11-05T05:34:07.200Z,97026.50
2022-11-05T05:37:10.535Z,97021.94
2022-11-05T05:40:15.655Z,97033.84
2022-11-05T05:43:19.146Z,97028.78
2022-11-05T05:46:22.850Z,97029.53
2022-11-05T05:49:26.191Z,97029.53
2022-11-05T05:52:29.812Z,97042.78
2022-11-05T05:55:34.630Z,97045.09
2022-11-05T05:58:40.467Z,97048.66
2022-11-05T06:01:44.094Z,97061.16
2022-11-05T06:04:48.953Z,97067.25
2022-11-05T06:07:57.130Z,97070.03
2022-11-05T06:11:03.726Z,97074.66
2022-11-05T06:14:07.341Z,97072.34
2022-11-05T06:17:11.396Z,97077.19
2022-11-05T06:20:14.815Z,97075.44
2022-11-05T06:23:18.698Z,97072.84
2022-11-05T06:26:23.700Z,97071.59
2022-11-05T06:29:27.479Z,97068.00
2022-11-05T06:32:32.132Z,97069.81
2022-11-05T06:35:36.116Z,97075.44
2022-11-05T06:38:39.855Z,97087.63
2022-11-05T06:42:11.884Z,97089.66
2022-11-05T06:45:10.590Z,97085.31
2022-11-05T06:48:14.512Z,97083.00
2022-11-05T06:51:18.073Z,97088.56
2022-11-05T06:54:22.414Z,97094.41
2022-11-05T06:57:27.735Z,97102.06
2022-11-05T07:00:32.077Z,97109.91
2022-11-05T07:03:36.454Z,97097.13
2022-11-05T07:06:40.458Z,97097.09
2022-11-05T07:09:44.884Z,97105.19
2022-11-05T07:12:50.425Z,97099.31
2022-11-05T07:16:12.579Z,97098.28
2022-11-05T07:19:16.571Z,97081.41
2022-11-05T07:22:20.041Z,97082.88
2022-11-05T07:25:24.258Z,97088.72
2022-11-05T07:28:29.105Z,97091.72
2022-11-05T07:31:32.838Z,97095.00
2022-11-05T07:34:36.439Z,97107.19
2022-11-05T07:37:44.939Z,97108.47
2022-11-05T07:40:48.356Z,97115.06
2022-11-05T07:43:53.569Z,97111.41
2022-11-05T07:47:00.806Z,97109.75
2022-11-05T07:50:05.863Z,97109.56
2022-11-05T07:53:12.624Z,97115.78
2022-11-05T07:56:16.648Z,97114.72
2022-11-05T07:59:21.602Z,97109.88
2022-11-05T08:02:26.729Z,97109.06
2022-11-05T08:05:31.934Z,97111.59
2022-11-05T08:08:35.645Z,97118.19
2022-11-05T08:11:40.036Z,97113.00
2022-11-05T08:14:48.306Z,97114.47
2022-11-05T08:17:52.237Z,97108.03
2022-11-05T08:20:56.090Z,97113.41
2022-11-05T08:23:59.661Z,97122.81
2022-11-05T08:27:03.863Z,97129.69
2022-11-05T08:30:10.794Z,97134.00
2022-11-05T08:33:25.553Z,97143.97
2022-11-05T08:36:29.294Z,97142.41
2022-11-05T08:39:33.036Z,97144.97
2022-11-05T08:42:37.317Z,97155.41
2022-11-05T08:45:43.670Z,97157.19
2022-11-05T08:48:47.401Z,97164.34
2022-11-05T08:51:51.414Z,97166.47
2022-11-05T08:54:55.874Z,97167.31
2022-11-05T08:58:02.149Z,97173.66
2022-11-05T09:01:10.041Z,97181.56
2022-11-05T09:04:16.129Z,97185.72
2022-11-05T09:07:19.811Z,97185.94
2022-11-05T09:10:24.349Z,97192.28
2022-11-05T09:13:28.111Z,97197.13
2022-11-05T09:16:36.810Z,97201.41
2022-11-05T09:19:40.365Z,97208.25
2022-11-05T09:22:45.105Z,97210.25
2022-11-05T09:25:52.702Z,97210.72
2022-11-05T09:28:57.027Z,97207.38
2022-11-05T09:32:03.367Z,97212.44
2022-11-05T09:35:08.370Z,97213.94
2022-11-05T09:38:13.342Z,97216.28
2022-11-05T09:41:28.022Z,97211.25
2022-11-05T09:44:41.648Z,97217.34
2022-11-05T09:47:54.674Z,97229.56
2022-11-05T09:50:59.726Z,97222.69
2022-11-05T09:54:06.195Z,97232.91
2022-11-05T09:57:15.585Z,97235.72
2022-11-05T10:00:20.162Z,97243.66
2022-11-05T10:03:26.845Z,97240.88
2022-11-05T10:06:32.163Z,97253.09
2022-11-05T10:09:40.943Z,97254.06
2022-11-05T10:12:49.098Z,97254.91
2022-11-05T10:16:01.597Z,97240.31
2022-11-05T10:19:10.997Z,97252.31
2022-11-05T10:22:17.321Z,97249.75
2022-11-05T10:25:23.249Z,97245.44
2022-11-05T10:28:28.282Z,97246.47
2022-11-05T10:31:37.381Z,97248.75
2022-11-05T10:34:43.612Z,97258.94
2022-11-05T10:37:48.018Z,97261.47
2022-11-05T10:41:01.461Z,97270.16
2022-11-05T10:44:29.523Z,97268.13
2022-11-05T10:48:05.484Z,97266.47
2022-11-05T10:51:11.274Z,97257.19
2022-11-05T10:54:20.785Z,97255.16
2022-11-05T10:57:35.091Z,97261.31
2022-11-05T11:00:38.993Z,97256.91
2022-11-05T11:03:45.682Z,97255.06
2022-11-05T11:06:52.754Z,97245.94
2022-11-05T11:09:56.564Z,97244.63
2022-11-05T11:13:00.377Z,97252.09
2022-11-05T11:16:16.329Z,97239.28
2022-11-05T11:19:31.314Z,97241.16
2022-11-05T11:22:39.601Z,97238.84
2022-11-05T11:25:54.040Z,97247.81
2022-11-05T11:29:01.981Z,97257.53
2022-11-05T11:32:05.780Z,97261.88
2022-11-05T11:35:21.519Z,97259.59
2022-11-05T11:38:30.809Z,97260.84
2022-11-05T11:41:39.661Z,97254.69
2022-11-05T11:44:46.320Z,97263.13
2022-11-05T11:47:51.450Z,97262.44
2022-11-05T11:50:56.182Z,97263.16
2022-11-05T11:54:02.758Z,97270.34
2022-11-05T11:57:22.499Z,97275.84
2022-11-05T12:00:27.510Z,97268.97
2022-11-05T12:03:36.949Z,97264.53
2022-11-05T12:06:49.120Z,97259.75
2022-11-05T12:10:11.453Z,97269.94
2022-11-05T12:13:36.727Z,97274.84
2022-11-05T12:17:09.634Z,97276.47
2022-11-05T12:20:42.080Z,97280.31
2022-11-05T12:24:01.409Z,97284.19
2022-11-05T12:27:23.236Z,97293.47
2022-11-05T12:30:27.087Z,97290.44
2022-11-05T12:34:02.337Z,97292.03
2022-11-05T12:37:23.719Z,97280.47
2022-11-05T12:40:57.129Z,97288.13
2022-11-05T12:44:16.934Z,97288.63
2022-11-05T12:47:37.967Z,97295.34
2022-11-05T12:50:49.393Z,97294.19
2022-11-05T12:54:02.345Z,97297.69
2022-11-05T12:57:09.360Z,97293.94
2022-11-05T13:00:21.917Z,97292.09
2022-11-05T13:03:39.658Z,97295.16
2022-11-05T13:06:52.829Z,97296.28
2022-11-05T13:10:04.537Z,97310.06
2022-11-05T13:13:15.327Z,97315.47
2022-11-05T13:16:28.303Z,97317.19
2022-11-05T13:19:37.481Z,97308.88
2022-11-05T13:22:45.683Z,97328.00
2022-11-05T13:25:53.978Z,97334.81
2022-11-05T13:29:05.903Z,97335.78
2022-11-05T13:32:21.050Z,97333.75
2022-11-05T13:35:29.370Z,97339.66
2022-11-05T13:38:51.806Z,97355.03
2022-11-05T13:42:26.697Z,97363.28
2022-11-05T13:46:29.738Z,97359.25
2022-11-05T13:50:00.436Z,97364.97
2022-11-05T13:53:33.739Z,97370.81
2022-11-05T13:56:57.515Z,97370.94
2022-11-05T14:00:12.880Z,97378.44
2022-11-05T14:03:22.232Z,97384.06
2022-11-05T14:06:30.659Z,97373.78
2022-11-05T14:09:37.951Z,97367.16
2022-11-05T14:12:42.879Z,97380.84
2022-11-05T14:16:04.132Z,97377.34
2022-11-05T14:19:44.914Z,97379.41
2022-11-05T14:22:50.383Z,97386.38
2022-11-05T14:25:59.766Z,97383.66
2022-11-05T14:29:27.388Z,97385.97
2022-11-05T14:32:45.169Z,97390.72
2022-11-05T14:35:48.643Z,97384.94
2022-11-05T14:39:01.392Z,97389.75
2022-11-05T14:42:13.443Z,97381.88
2022-11-05T14:45:28.485Z,97391.41
2022-11-05T14:48:40.432Z,97395.09
2022-11-05T14:51:47.066Z,97396.06
2022-11-05T14:54:55.917Z,97394.41
2022-11-05T14:58:28.320Z,97401.16
2022-11-05T15:01:54.765Z,97399.22
2022-11-05T15:05:35.188Z,97399.38
2022-11-05T15:08:53.322Z,97406.31
2022-11-05T15:12:09.190Z,97394.75
2022-11-05T15:15:22.470Z,97394.81
2022-11-05T15:18:48.379Z,97399.72
2022-11-05T15:21:54.385Z,97408.16
2022-11-05T15:24:58.612Z,97406.47
2022-11-05T15:28:11.280Z,97405.91
2022-11-05T15:31:27.617Z,97406.72
2022-11-05T15:34:33.398Z,97404.19
2022-11-05T15:37:37.361Z,97412.84
2022-11-05T15:41:02.072Z,97410.25
2022-11-05T15:44:07.376Z,97421.44
2022-11-05T15:47:18.963Z,97416.38
2022-11-05T15:50:22.836Z,97415.94
2022-11-05T15:53:51.502Z,97437.56
2022-11-05T15:57:01.649Z,97430.00
2022-11-05T16:00:16.708Z,97441.81
2022-11-05T16:03:29.381Z,97447.41
2022-11-05T16:06:40.490Z,97448.53
2022-11-05T16:09:52.779Z,97461.22
2022-11-05T16:12:56.421Z,97456.81
2022-11-05T16:16:04.194Z,97473.53
2022-11-05T16:19:40.132Z,97467.94
2022-11-05T16:22:48.445Z,97468.72
2022-11-05T16:25:52.374Z,97479.97
2022-11-05T16:28:56.794Z,97487.56
2022-11-05T16:32:04.294Z,97480.84
2022-11-05T16:35:18.103Z,97491.72
2022-11-05T16:38:22.163Z,97495.44
2022-11-05T16:41:27.497Z,97491.31
2022-11-05T16:44:34.210Z,97499.50
2022-11-05T16:47:39.457Z,97512.94
2022-11-05T16:50:43.848Z,97502.94
2022-11-05T16:53:48.460Z,97508.56
2022-11-05T16:56:51.837Z,97520.41
2022-11-05T16:59:57.058Z,97517.63
2022-11-05T17:03:01.917Z,97494.47
2022-11-05T17:06:06.207Z,97510.16
2022-11-05T17:09:09.659Z,97525.66
2022-11-05T17:12:13.661Z,97522.38
2022-11-05T17:15:19.713Z,97514.28
2022-11-05T17:18:25.656Z,97512.97
2022-11-05T17:21:29.458Z,97515.63
2022-11-05T17:24:33.119Z,97525.25
2022-11-05T17:27:36.594Z,97526.59
2022-11-05T17:30:41.860Z,97522.56
2022-11-05T17:33:47.019Z,97527.47
2022-11-05T17:36:50.996Z,97539.38
2022-11-05T17:39:54.367Z,97552.38
2022-11-05T17:42:58.129Z,97557.34
2022-11-05T17:46:04.482Z,97563.22
2022-11-05T17:49:10.171Z,97564.75
2022-11-05T17:52:32.355Z,97569.09
2022-11-05T17:55:36.427Z,97566.78
2022-11-05T17:58:58.155Z,97563.53
2022-11-05T18:02:02.121Z,97564.88
2022-11-05T18:05:08.195Z,97559.13
2022-11-05T18:08:12.773Z,97554.50
2022-11-05T18:11:16.489Z,97568.25
2022-11-05T18:14:24.065Z,97564.88
2022-11-05T18:17:28.021Z,97577.94
2022-11-05T18:20:33.034Z,97571.22
2022-11-05T18:23:36.487Z,97574.00
2022-11-05T18:26:40.146Z,97564.41
2022-11-05T18:29:43.499Z,97566.78
2022-11-05T18:32:48.045Z,97560.38
2022-11-05T18:35:52.953Z,97562.94
2022-11-05T18:38:58.586Z,97575.44
2022-11-05T18:42:01.907Z,97564.59
2022-11-05T18:45:06.748Z,97570.78
2022-11-05T18:48:11.522Z,97572.00
2022-11-05T18:51:16.922Z,97575.19
2022-11-05T18:54:20.442Z,97578.34
2022-11-05T18:57:24.465Z,97571.84
2022-11-05T19:00:27.942Z,97582.94
2022-11-05T19:03:31.970Z,97589.69
2022-11-05T19:06:37.830Z,97585.38
2022-11-05T19:09:41.732Z,97600.09
2022-11-05T19:12:45.046Z,97602.06
2022-11-05T19:15:48.656Z,97598.13
2022-11-05T19:18:52.199Z,97601.84
2022-11-05T19:21:57.812Z,97606.22
2022-11-05T19:25:01.367Z,97608.38
2022-11-05T19:28:05.866Z,97606.97
2022-11-05T19:31:11.945Z,97607.16
2022-11-05T19:34:17.091Z,97621.81
2022-11-05T19:37:21.878Z,97630.44
2022-11-05T19:40:25.570Z,97617.94
2022-11-05T19:43:29.142Z,97611.63
2022-11-05T19:46:33.954Z,97625.19
2022-11-05T19:49:37.410Z,97618.56
2022-11-05T19:52:42.540Z,97631.28
2022-11-05T19:55:46.070Z,97634.81
2022-11-05T19:59:08.444Z,97651.66
2022-11-05T20:02:16.182Z,97661.59
2022-11-05T20:05:20.425Z,97656.69
2022-11-05T20:08:25.201Z,97656.97
2022-11-05T20:11:28.972Z,97653.31
2022-11-05T20:14:33.302Z,97648.28
2022-11-05T20:17:39.186Z,97659.25
2022-11-05T20:20:42.605Z,97648.97
2022-11-05T20:23:48.485Z,97654.19
2022-11-05T20:26:52.077Z,97667.19
2022-11-05T20:29:55.751Z,97669.38
2022-11-05T20:32:59.481Z,97673.50
2022-11-05T20:36:05.333Z,97672.84
2022-11-05T20:39:12.040Z,97671.47
2022-11-05T20:42:15.779Z,97666.75
2022-11-05T20:45:19.470Z,97668.53
2022-11-05T20:48:23.089Z,97672.78
2022-11-05T20:51:26.523Z,97687.47
2022-11-05T20:54:31.573Z,97695.81
2022-11-05T20:57:35.046Z,97702.88
2022-11-05T21:00:39.178Z,97702.88
2022-11-05T21:03:42.493Z,97710.63
2022-11-05T21:06:46.121Z,97703.47
2022-11-05T21:09:51.115Z,97705.19
2022-11-05T21:12:54.818Z,97707.53
2022-11-05T21:15:59.976Z,97700.38
2022-11-05T21:19:03.675Z,97693.44
2022-11-05T21:22:07.862Z,97699.31
2022-11-05T21:25:14.202Z,97700.09
2022-11-05T21:28:17.773Z,97696.91
2022-11-05T21:31:21.479Z,97701.97
2022-11-05T21:34:25.278Z,97719.53
2022-11-05T21:37:29.199Z,97726.94
2022-11-05T21:40:34.073Z,97717.22
2022-11-05T21:43:39.466Z,97701.94
2022-11-05T21:46:42.945Z,97681.09
2022-11-05T21:49:46.963Z,97685.94
2022-11-05T21:53:08.534Z,97683.53
2022-11-05T21:56:36.892Z,97686.72
2022-11-05T21:59:51.409Z,97703.81
2022-11-05T22:02:55.315Z,97707.84
2022-11-05T22:05:58.723Z,97703.28
2022-11-05T22:09:02.519Z,97711.38
2022-11-05T22:12:07.727Z,97710.34
2022-11-05T22:15:12.102Z,97697.09
2022-11-05T22:18:15.709Z,97702.22
2022-11-05T22:21:20.046Z,97697.94
2022-11-05T22:24:24.226Z,97695.50
2022-11-05T22:27:29.506Z,97703.63
2022-11-05T22:30:34.567Z,97706.53
2022-11-05T22:33:38.418Z,97718.91
2022-11-05T22:36:42.225Z,97722.22
2022-11-05T22:39:46.229Z,97727.53
2022-11-05T22:42:51.094Z,97713.59
2022-11-05T22:45:54.757Z,97707.13
2022-11-05T22:48:58.538Z,97711.06
2022-11-05T22:52:02.254Z,97713.66
2022-11-05T22:55:06.336Z,97698.44
2022-11-05T22:58:11.939Z,97703.06
2022-11-05T23:01:16.349Z,97699.00
2022-11-05T23:04:20.348Z,97705.44
2022-11-05T23:07:40.838Z,97692.16
2022-11-05T23:11:02.196Z,97702.72
2022-11-05T23:14:08.449Z,97709.03
2022-11-05T23:17:29.283Z,97713.44
2022-11-05T23:20:49.826Z,97701.31
2022-11-05T23:24:05.248Z,97708.25
2022-11-05T23:27:08.785Z,97698.28
2022-11-05T23:30:18.545Z,97702.44
2022-11-05T23:33:20.987Z,97704.16
2022-11-05T23:36:42.077Z,97712.03
2022-11-05T23:39:45.565Z,97708.38
2022-11-05T23:43:07.274Z,97699.81
2022-11-05T23:46:34.791Z,97699.03
2022-11-05T23:49:38.512Z,97703.56
2022-11-05T23:52:41.914Z,97703.19
2022-11-05T23:55:45.707Z,97694.25
2022-11-05T23:58:49.040Z,97692.47
